Time;durP1;ratioP1;P1;durP2;ratioP2;P2;SDS_P1;SDS_P2;PMS_P1;PMS_P2;Temp;Humidity;BMP_temperature;BMP_pressure;BME280_temperature;BME280_humidity;BME280_pressure;Samples;Min_cycle;Max_cycle;Signal;HPM_P1;HPM_P2
2021/06/19 00:01:27;;;;;;;0.10;0.10;;;17.60;74.90;;;;;;5061925;28;20059;-84
2021/06/19 00:03:53;;;;;;;0.10;0.10;;;17.60;75.00;;;;;;5057727;28;20531;-84
2021/06/19 00:06:19;;;;;;;0.10;0.10;;;17.70;74.50;;;;;;5072841;28;20055;-84
2021/06/19 00:08:44;;;;;;;0.10;0.10;;;17.70;74.30;;;;;;5057617;28;20032;-84
2021/06/19 00:11:13;;;;;;;0.10;0.10;;;17.70;74.40;;;;;;5057972;28;20045;-84
2021/06/19 00:13:39;;;;;;;0.20;0.20;;;17.70;74.10;;;;;;5057887;28;20102;-85
2021/06/19 00:16:05;;;;;;;0.30;0.20;;;17.70;74.10;;;;;;5057551;28;20036;-84
2021/06/19 00:18:32;;;;;;;0.10;0.10;;;17.70;74.50;;;;;;5058028;28;20027;-84
2021/06/19 00:20:58;;;;;;;0.10;0.10;;;17.60;75.00;;;;;;5057302;28;20044;-85
2021/06/19 00:23:24;;;;;;;0.57;0.20;;;17.60;75.30;;;;;;5057994;28;20480;-85
2021/06/19 00:25:49;;;;;;;0.20;0.20;;;17.70;74.60;;;;;;5072682;28;20036;-84
2021/06/19 00:28:18;;;;;;;0.20;0.20;;;17.70;74.40;;;;;;5073660;28;20041;-84
2021/06/19 00:30:44;;;;;;;0.20;0.20;;;17.70;73.80;;;;;;5076245;28;20044;-84
2021/06/19 00:33:10;;;;;;;0.10;0.10;;;17.80;74.30;;;;;;5071374;28;20036;-84
2021/06/19 00:35:36;;;;;;;0.20;0.20;;;17.70;74.60;;;;;;5057579;28;20021;-85
2021/06/19 00:38:02;;;;;;;0.13;0.13;;;17.70;74.10;;;;;;5056045;28;20404;-85
2021/06/19 00:40:28;;;;;;;0.20;0.20;;;17.70;74.50;;;;;;5058465;28;20045;-84
2021/06/19 00:42:56;;;;;;;0.20;0.20;;;17.70;74.90;;;;;;5088512;28;20025;-84
2021/06/19 00:45:27;;;;;;;0.10;0.10;;;17.70;74.70;;;;;;5055457;28;20079;-84
2021/06/19 00:47:53;;;;;;;0.10;0.10;;;17.70;74.90;;;;;;5055310;28;20020;-85
2021/06/19 00:50:19;;;;;;;0.20;0.20;;;17.70;75.00;;;;;;5056031;28;20055;-84
2021/06/19 00:52:45;;;;;;;0.20;0.20;;;17.70;75.20;;;;;;5073316;28;20395;-85
2021/06/19 00:55:12;;;;;;;0.20;0.20;;;17.70;75.10;;;;;;5070981;28;20463;-84
2021/06/19 00:57:38;;;;;;;0.20;0.20;;;17.70;74.60;;;;;;5056232;28;20083;-85
2021/06/19 01:00:06;;;;;;;0.15;0.10;;;17.70;74.90;;;;;;5086560;28;20028;-85
2021/06/19 01:02:34;;;;;;;0.20;0.20;;;17.70;75.60;;;;;;5097322;28;20016;-84
2021/06/19 01:05:00;;;;;;;0.20;0.20;;;17.70;75.00;;;;;;5080731;28;20028;-84
2021/06/19 01:07:27;;;;;;;0.30;0.20;;;17.70;75.00;;;;;;5056622;28;20025;-84
2021/06/19 01:09:52;;;;;;;0.30;0.25;;;17.70;75.10;;;;;;5057522;28;20037;-85
2021/06/19 01:12:23;;;;;;;0.20;0.20;;;17.80;74.60;;;;;;5056495;28;20037;-85
2021/06/19 01:14:53;;;;;;;0.30;0.20;;;17.70;74.70;;;;;;5072609;28;20051;-85
2021/06/19 01:17:20;;;;;;;0.20;0.20;;;17.80;74.50;;;;;;5071524;28;20031;-84
2021/06/19 01:19:58;;;;;;;0.20;0.20;;;17.80;74.50;;;;;;5056840;28;20471;-84
2021/06/19 01:22:24;;;;;;;0.20;0.20;;;17.70;75.10;;;;;;5071899;28;20032;-85
2021/06/19 01:24:51;;;;;;;0.20;0.20;;;17.70;75.00;;;;;;5074776;28;20028;-85
2021/06/19 01:27:17;;;;;;;0.30;0.20;;;17.70;75.40;;;;;;5073370;28;20025;-85
2021/06/19 01:29:42;;;;;;;0.20;0.20;;;17.60;75.30;;;;;;5055919;28;20854;-84
2021/06/19 01:32:08;;;;;;;0.20;0.20;;;17.70;75.00;;;;;;5089347;28;20486;-84
2021/06/19 01:34:34;;;;;;;0.25;0.20;;;17.70;74.70;;;;;;5055289;28;20029;-85
2021/06/19 01:36:59;;;;;;;0.20;0.20;;;17.70;74.90;;;;;;5056099;28;20031;-84
2021/06/19 01:39:25;;;;;;;0.20;0.20;;;17.70;74.90;;;;;;5055868;28;20041;-84
2021/06/19 01:41:51;;;;;;;0.43;0.20;;;17.70;74.90;;;;;;5054812;28;20373;-85
2021/06/19 01:44:16;;;;;;;0.20;0.20;;;17.70;75.20;;;;;;5056728;28;20025;-85
2021/06/19 01:46:43;;;;;;;0.25;0.20;;;17.70;75.10;;;;;;5055757;28;20128;-85
2021/06/19 01:49:09;;;;;;;0.20;0.20;;;17.70;75.30;;;;;;5056461;28;20032;-85
2021/06/19 01:51:35;;;;;;;0.40;0.30;;;17.60;75.00;;;;;;5072182;28;20555;-84
2021/06/19 01:54:01;;;;;;;0.20;0.20;;;17.60;75.10;;;;;;5076413;28;20086;-83
2021/06/19 01:56:27;;;;;;;0.28;0.20;;;17.60;75.10;;;;;;5059424;28;20372;-85
2021/06/19 01:58:53;;;;;;;0.20;0.20;;;17.60;75.40;;;;;;5065714;28;20160;-85
2021/06/19 02:01:19;;;;;;;0.25;0.20;;;17.60;75.30;;;;;;5096465;28;20024;-84
2021/06/19 02:03:46;;;;;;;0.30;0.20;;;17.60;75.40;;;;;;5088740;28;20017;-84
2021/06/19 02:06:13;;;;;;;0.20;0.20;;;17.60;75.30;;;;;;5056484;28;20480;-84
2021/06/19 02:08:39;;;;;;;0.20;0.20;;;17.60;75.10;;;;;;5055398;28;20036;-85
2021/06/19 02:11:06;;;;;;;0.28;0.20;;;17.60;75.40;;;;;;5056607;28;20036;-84
2021/06/19 02:13:33;;;;;;;0.20;0.20;;;17.60;75.50;;;;;;5053936;28;20086;-85
2021/06/19 02:15:59;;;;;;;0.20;0.20;;;17.60;75.60;;;;;;5055410;28;20062;-85
2021/06/19 02:18:25;;;;;;;0.20;0.20;;;17.60;75.50;;;;;;5065261;28;20107;-84
2021/06/19 02:20:54;;;;;;;0.20;0.20;;;17.50;75.80;;;;;;5074375;28;20028;-84
2021/06/19 02:23:22;;;;;;;0.28;0.20;;;17.50;75.60;;;;;;5054914;28;20032;-85
2021/06/19 02:25:52;;;;;;;0.20;0.20;;;17.50;75.90;;;;;;5055047;28;20032;-84
2021/06/19 02:28:20;;;;;;;0.20;0.20;;;17.50;75.80;;;;;;5056039;28;20044;-84
2021/06/19 02:30:48;;;;;;;0.30;0.20;;;17.50;75.90;;;;;;5055246;28;20040;-85
2021/06/19 02:33:34;;;;;;;0.30;0.20;;;17.60;75.40;;;;;;5055006;28;20106;-85
2021/06/19 02:36:00;;;;;;;0.20;0.20;;;17.60;75.80;;;;;;5055612;28;20116;-85
2021/06/19 02:38:25;;;;;;;0.20;0.20;;;17.60;75.70;;;;;;5058829;28;20152;-84
2021/06/19 02:40:51;;;;;;;0.32;0.20;;;17.50;75.70;;;;;;5075946;28;20032;-85
2021/06/19 02:43:19;;;;;;;0.20;0.20;;;17.50;75.80;;;;;;5075060;28;20043;-85
2021/06/19 02:45:45;;;;;;;0.30;0.20;;;17.50;76.00;;;;;;5077599;28;20031;-85
2021/06/19 02:48:11;;;;;;;0.30;0.20;;;17.50;75.90;;;;;;5073220;28;20017;-85
2021/06/19 02:50:42;;;;;;;0.20;0.20;;;17.50;75.90;;;;;;5058078;28;20415;-84
2021/06/19 02:53:08;;;;;;;0.45;0.20;;;17.60;75.60;;;;;;5058404;28;20025;-84
2021/06/19 02:55:36;;;;;;;0.20;0.20;;;17.50;75.60;;;;;;5058989;28;20051;-85
2021/06/19 02:58:05;;;;;;;0.20;0.20;;;17.60;75.60;;;;;;5070945;28;20108;-85
2021/06/19 03:00:31;;;;;;;0.52;0.20;;;17.50;75.50;;;;;;5068240;28;20112;-84
2021/06/19 03:02:57;;;;;;;0.20;0.20;;;17.50;75.50;;;;;;5075041;28;20070;-84
2021/06/19 03:05:26;;;;;;;0.20;0.20;;;17.50;75.50;;;;;;5091081;28;20545;-85
2021/06/19 03:07:52;;;;;;;0.30;0.20;;;17.50;75.80;;;;;;5059782;28;20009;-84
2021/06/19 03:10:21;;;;;;;0.20;0.20;;;17.50;76.00;;;;;;5057524;28;20083;-84
2021/06/19 03:12:47;;;;;;;0.20;0.20;;;17.50;75.80;;;;;;5058765;28;20032;-84
2021/06/19 03:15:13;;;;;;;0.20;0.20;;;17.50;75.40;;;;;;5059906;28;20484;-84
2021/06/19 03:17:40;;;;;;;0.20;0.20;;;17.60;75.60;;;;;;5058384;28;20134;-84
2021/06/19 03:20:07;;;;;;;0.30;0.20;;;17.50;75.80;;;;;;5059106;28;20122;-85
2021/06/19 03:22:49;;;;;;;0.30;0.30;;;17.50;75.80;;;;;;5058462;28;20059;-84
2021/06/19 03:25:17;;;;;;;0.25;0.20;;;17.50;75.80;;;;;;5059167;28;20107;-84
2021/06/19 03:27:44;;;;;;;0.22;0.20;;;17.50;75.50;;;;;;5058507;28;20033;-85
2021/06/19 03:30:13;;;;;;;0.28;0.20;;;17.50;75.80;;;;;;5058535;28;20056;-85
2021/06/19 03:32:39;;;;;;;0.20;0.20;;;17.50;76.00;;;;;;5059269;28;20131;-84
2021/06/19 03:35:07;;;;;;;0.20;0.20;;;17.50;75.60;;;;;;5072455;28;20040;-85
2021/06/19 03:37:34;;;;;;;0.20;0.20;;;17.50;75.50;;;;;;5078994;28;20112;-85
2021/06/19 03:39:59;;;;;;;0.22;0.20;;;17.50;75.50;;;;;;5063050;28;20040;-85
2021/06/19 03:42:25;;;;;;;0.30;0.22;;;17.40;75.90;;;;;;5059154;28;20029;-85
2021/06/19 03:44:51;;;;;;;0.20;0.20;;;17.50;76.00;;;;;;5056821;28;20067;-85
2021/06/19 03:47:37;;;;;;;0.30;0.20;;;17.50;75.50;;;;;;5056586;28;20480;-84
2021/06/19 03:50:04;;;;;;;0.20;0.20;;;17.50;75.30;;;;;;5058341;28;20024;-85
2021/06/19 03:52:29;;;;;;;0.35;0.20;;;17.50;75.50;;;;;;5057795;28;20174;-84
2021/06/19 03:54:55;;;;;;;0.20;0.20;;;17.50;75.50;;;;;;5057545;28;20064;-85
2021/06/19 03:57:26;;;;;;;0.20;0.20;;;17.50;75.90;;;;;;5057122;28;20079;-85
2021/06/19 03:59:52;;;;;;;0.20;0.20;;;17.40;76.00;;;;;;5088713;28;20024;-85
2021/06/19 04:02:19;;;;;;;0.20;0.20;;;17.50;75.80;;;;;;5091845;28;20032;-85
2021/06/19 04:04:45;;;;;;;0.20;0.20;;;17.40;75.70;;;;;;5058305;28;20021;-84
2021/06/19 04:07:11;;;;;;;0.20;0.20;;;17.40;75.70;;;;;;5057865;28;20090;-85
2021/06/19 04:09:37;;;;;;;0.40;0.20;;;17.40;76.30;;;;;;5057873;28;20104;-84
2021/06/19 04:12:04;;;;;;;0.20;0.20;;;17.50;75.80;;;;;;5058535;28;20056;-84
2021/06/19 04:14:29;;;;;;;0.20;0.20;;;17.50;75.90;;;;;;5071693;28;20040;-85
2021/06/19 04:16:55;;;;;;;0.20;0.20;;;17.50;75.70;;;;;;5058462;28;20029;-85
2021/06/19 04:19:21;;;;;;;0.20;0.20;;;17.50;75.70;;;;;;5057282;28;20032;-85
2021/06/19 04:21:46;;;;;;;0.30;0.20;;;17.50;75.50;;;;;;5067712;28;20032;-84
2021/06/19 04:24:13;;;;;;;0.30;0.20;;;17.50;75.70;;;;;;5077925;28;20048;-85
2021/06/19 04:26:39;;;;;;;0.20;0.20;;;17.50;75.50;;;;;;5077458;28;20021;-85
2021/06/19 04:29:04;;;;;;;0.28;0.20;;;17.50;75.70;;;;;;5069498;28;20064;-85
2021/06/19 04:31:31;;;;;;;0.20;0.20;;;17.50;75.80;;;;;;5055819;28;20021;-84
2021/06/19 04:33:58;;;;;;;0.30;0.20;;;17.50;75.80;;;;;;5058062;28;20514;-84
2021/06/19 04:36:27;;;;;;;0.32;0.20;;;17.50;75.90;;;;;;5057271;28;20169;-85
2021/06/19 04:38:54;;;;;;;0.20;0.20;;;17.50;76.20;;;;;;5067141;28;20063;-84
2021/06/19 04:41:30;;;;;;;0.20;0.20;;;17.50;75.90;;;;;;5076308;28;20025;-85
2021/06/19 04:46:21;;;;;;;0.22;0.20;;;17.50;76.00;;;;;;5078009;28;20150;-85
2021/06/19 04:48:47;;;;;;;0.20;0.20;;;17.50;76.20;;;;;;5070965;28;20127;-85
2021/06/19 04:51:13;;;;;;;0.20;0.20;;;17.40;76.30;;;;;;5057515;28;20072;-85
2021/06/19 04:53:39;;;;;;;0.20;0.20;;;17.30;76.60;;;;;;5056917;28;20033;-85
2021/06/19 04:56:05;;;;;;;0.20;0.20;;;17.30;76.60;;;;;;5055632;28;20075;-84
2021/06/19 04:58:33;;;;;;;0.30;0.20;;;17.30;76.80;;;;;;5061028;28;20030;-85
2021/06/19 05:00:59;;;;;;;0.10;0.10;;;17.30;76.70;;;;;;5091662;28;20030;-84
2021/06/19 05:03:24;;;;;;;0.20;0.20;;;17.30;76.40;;;;;;5055308;28;20052;-85
2021/06/19 05:05:51;;;;;;;0.20;0.20;;;17.40;76.10;;;;;;5056591;28;20452;-85
2021/06/19 05:08:17;;;;;;;0.20;0.20;;;17.40;76.10;;;;;;5055914;28;20522;-84
2021/06/19 05:10:43;;;;;;;0.30;0.20;;;17.50;75.90;;;;;;5055875;28;20570;-85
2021/06/19 05:13:09;;;;;;;0.20;0.20;;;17.50;75.60;;;;;;5056568;28;20024;-85
2021/06/19 05:15:34;;;;;;;0.20;0.20;;;17.50;75.70;;;;;;5056638;28;20044;-85
2021/06/19 05:18:00;;;;;;;0.22;0.22;;;17.40;75.90;;;;;;5056335;28;20100;-85
2021/06/19 05:20:28;;;;;;;0.20;0.20;;;17.50;75.70;;;;;;5056065;28;20380;-85
2021/06/19 05:22:54;;;;;;;0.20;0.20;;;17.50;76.20;;;;;;5056367;28;20104;-84
2021/06/19 05:25:20;;;;;;;0.22;0.20;;;17.50;76.00;;;;;;5056336;28;20096;-85
2021/06/19 05:27:46;;;;;;;0.20;0.20;;;17.40;75.80;;;;;;5055969;28;20059;-85
2021/06/19 05:30:12;;;;;;;0.20;0.20;;;17.30;76.00;;;;;;5055954;28;20507;-80
2021/06/19 05:32:38;;;;;;;0.22;0.20;;;17.40;76.10;;;;;;5070726;28;20115;-81
2021/06/19 05:35:05;;;;;;;0.20;0.20;;;17.40;76.10;;;;;;5054904;28;20079;-80
2021/06/19 05:37:30;;;;;;;0.20;0.20;;;17.40;75.80;;;;;;5056032;28;20032;-82
2021/06/19 05:39:56;;;;;;;0.30;0.20;;;17.40;76.10;;;;;;5056054;28;20028;-78
2021/06/19 05:42:22;;;;;;;0.20;0.20;;;17.30;76.20;;;;;;5055969;28;20025;-81
2021/06/19 05:44:48;;;;;;;0.20;0.20;;;17.30;76.10;;;;;;5056010;28;20028;-82
2021/06/19 05:47:13;;;;;;;0.20;0.20;;;17.30;75.90;;;;;;5055833;28;20144;-82
2021/06/19 05:49:40;;;;;;;0.30;0.28;;;17.10;76.20;;;;;;5055831;28;20033;-79
2021/06/19 05:52:07;;;;;;;0.20;0.20;;;17.20;76.10;;;;;;5055510;28;20403;-84
2021/06/19 05:54:36;;;;;;;0.30;0.20;;;17.20;75.80;;;;;;5055921;28;20032;-81
2021/06/19 05:57:11;;;;;;;0.20;0.20;;;17.10;76.10;;;;;;5055869;28;20017;-78
2021/06/19 05:59:37;;;;;;;0.20;0.20;;;17.30;76.10;;;;;;5071652;28;20056;-81
2021/06/19 06:02:04;;;;;;;0.10;0.10;;;17.30;75.60;;;;;;5075453;28;20024;-79
2021/06/19 06:04:32;;;;;;;0.20;0.20;;;17.40;75.40;;;;;;5057459;28;20036;-86
2021/06/19 06:06:58;;;;;;;0.10;0.10;;;17.50;75.10;;;;;;5073158;28;20030;-76
2021/06/19 06:09:23;;;;;;;0.10;0.10;;;17.60;74.70;;;;;;5070275;28;20541;-79
2021/06/19 06:11:49;;;;;;;0.20;0.20;;;17.70;74.10;;;;;;5055487;28;20032;-76
2021/06/19 06:14:15;;;;;;;0.20;0.20;;;17.60;74.30;;;;;;5069292;28;20511;-77
2021/06/19 06:16:41;;;;;;;0.20;0.20;;;17.70;74.20;;;;;;5074172;28;20032;-77
2021/06/19 06:19:07;;;;;;;0.20;0.20;;;17.70;74.10;;;;;;5055772;28;20033;-77
2021/06/19 06:21:32;;;;;;;0.10;0.10;;;17.80;74.40;;;;;;5060585;28;20013;-76
2021/06/19 06:23:58;;;;;;;0.20;0.20;;;17.80;74.10;;;;;;5074819;28;20093;-77
2021/06/19 06:26:24;;;;;;;0.20;0.20;;;17.80;73.90;;;;;;5073422;28;20035;-76
2021/06/19 06:28:50;;;;;;;0.20;0.20;;;17.80;73.80;;;;;;5071277;28;20482;-76
2021/06/19 06:31:16;;;;;;;0.20;0.20;;;17.80;73.80;;;;;;5049022;28;20541;-76
2021/06/19 06:33:41;;;;;;;0.20;0.20;;;17.80;74.00;;;;;;5066352;28;20032;-76
2021/06/19 06:36:07;;;;;;;0.20;0.20;;;17.80;74.40;;;;;;5073976;28;20432;-76
2021/06/19 06:38:33;;;;;;;0.20;0.20;;;17.70;74.30;;;;;;5073552;28;20028;-76
2021/06/19 06:40:58;;;;;;;0.15;0.15;;;17.70;74.40;;;;;;5075078;28;20399;-76
2021/06/19 06:43:24;;;;;;;0.20;0.20;;;17.80;74.10;;;;;;5072306;28;20159;-76
2021/06/19 06:45:50;;;;;;;0.20;0.20;;;17.80;74.10;;;;;;5057508;28;20509;-77
2021/06/19 06:48:16;;;;;;;0.20;0.20;;;17.80;74.10;;;;;;5054981;28;20119;-77
2021/06/19 06:50:42;;;;;;;0.20;0.20;;;17.80;74.10;;;;;;5054938;28;20392;-76
2021/06/19 06:53:08;;;;;;;0.20;0.20;;;17.90;73.90;;;;;;5054686;28;20091;-74
2021/06/19 06:55:33;;;;;;;0.28;0.20;;;18.00;73.80;;;;;;5061878;28;20092;-76
2021/06/19 06:57:59;;;;;;;0.20;0.20;;;18.20;73.70;;;;;;5070225;28;20032;-76
2021/06/19 07:00:25;;;;;;;0.20;0.20;;;18.20;73.50;;;;;;5072422;28;20025;-75
2021/06/19 07:02:51;;;;;;;0.20;0.20;;;18.30;73.20;;;;;;5069545;28;20025;-74
2021/06/19 07:05:18;;;;;;;0.20;0.20;;;18.30;73.20;;;;;;5070017;28;20029;-75
2021/06/19 07:07:43;;;;;;;0.17;0.17;;;18.20;73.00;;;;;;5066528;28;20067;-74
2021/06/19 07:10:11;;;;;;;0.45;0.28;;;18.20;73.20;;;;;;5067576;28;20025;-74
2021/06/19 07:12:37;;;;;;;0.30;0.20;;;18.20;73.10;;;;;;5060822;28;20028;-75
2021/06/19 07:15:04;;;;;;;0.30;0.20;;;18.30;73.60;;;;;;5059230;28;20387;-75
2021/06/19 07:17:30;;;;;;;0.20;0.20;;;18.30;73.40;;;;;;5068246;28;20032;-76
2021/06/19 07:19:56;;;;;;;0.20;0.20;;;18.40;72.90;;;;;;5069212;28;20033;-76
2021/06/19 07:22:22;;;;;;;0.40;0.20;;;18.50;72.90;;;;;;5069444;28;20039;-76
2021/06/19 07:24:48;;;;;;;0.10;0.10;;;18.60;72.70;;;;;;5069010;28;20059;-76
2021/06/19 07:27:14;;;;;;;0.30;0.20;;;18.60;72.50;;;;;;5067740;28;20025;-75
2021/06/19 07:29:40;;;;;;;0.15;0.15;;;18.60;72.60;;;;;;5053898;28;20694;-74
2021/06/19 07:32:06;;;;;;;0.20;0.20;;;18.70;72.50;;;;;;5054632;28;20029;-74
2021/06/19 07:34:32;;;;;;;0.20;0.20;;;18.60;72.30;;;;;;5062249;28;20029;-78
2021/06/19 07:36:58;;;;;;;0.20;0.17;;;18.80;72.50;;;;;;5064960;28;20567;-75
2021/06/19 07:39:23;;;;;;;0.10;0.10;;;18.90;72.00;;;;;;5069259;28;20061;-75
2021/06/19 07:41:49;;;;;;;0.10;0.10;;;18.90;72.10;;;;;;5063587;28;20021;-74
2021/06/19 07:44:15;;;;;;;0.20;0.20;;;18.90;71.90;;;;;;5073472;28;20107;-73
2021/06/19 07:46:42;;;;;;;0.17;0.17;;;19.00;71.80;;;;;;5063819;28;20024;-74
2021/06/19 07:49:07;;;;;;;0.20;0.10;;;19.20;71.90;;;;;;5066872;28;20033;-74
2021/06/19 07:51:33;;;;;;;0.20;0.20;;;19.30;71.70;;;;;;5074386;28;20036;-74
2021/06/19 07:54:00;;;;;;;0.20;0.20;;;19.30;70.50;;;;;;5077175;28;20036;-74
2021/06/19 07:56:26;;;;;;;0.30;0.20;;;19.30;70.70;;;;;;5076559;28;20028;-74
2021/06/19 07:58:51;;;;;;;0.20;0.20;;;19.10;70.90;;;;;;5082336;28;20088;-75
2021/06/19 08:01:17;;;;;;;0.20;0.10;;;19.30;70.80;;;;;;5097918;28;20044;-74
2021/06/19 08:03:43;;;;;;;0.10;0.10;;;19.20;71.20;;;;;;5057582;28;20036;-74
2021/06/19 08:06:09;;;;;;;0.20;0.20;;;19.40;71.30;;;;;;5064362;28;20115;-74
2021/06/19 08:08:34;;;;;;;0.30;0.20;;;19.40;70.70;;;;;;5063759;28;20064;-74
2021/06/19 08:11:00;;;;;;;0.20;0.10;;;19.50;70.80;;;;;;5060942;28;20099;-74
2021/06/19 08:13:27;;;;;;;0.20;0.10;;;19.60;70.40;;;;;;5080325;28;20048;-74
2021/06/19 08:15:56;;;;;;;0.20;0.15;;;19.60;70.60;;;;;;5057386;28;20033;-74
2021/06/19 08:18:22;;;;;;;0.10;0.10;;;19.50;70.60;;;;;;5055633;28;20041;-74
2021/06/19 08:20:47;;;;;;;0.10;0.10;;;19.50;70.40;;;;;;5057142;28;20032;-74
2021/06/19 08:23:13;;;;;;;0.10;0.10;;;19.50;69.90;;;;;;5066960;28;20024;-74
2021/06/19 08:25:39;;;;;;;0.25;0.20;;;19.50;70.00;;;;;;5077270;28;20458;-74
2021/06/19 08:28:05;;;;;;;0.15;0.10;;;19.30;69.70;;;;;;5075625;28;20035;-74
2021/06/19 08:30:31;;;;;;;0.10;0.10;;;19.10;70.40;;;;;;5071654;28;20064;-74
2021/06/19 08:32:57;;;;;;;0.20;0.20;;;19.10;71.10;;;;;;5056121;28;20059;-74
2021/06/19 08:35:22;;;;;;;0.10;0.10;;;19.00;71.00;;;;;;5055496;28;20025;-74
2021/06/19 08:37:48;;;;;;;0.10;0.10;;;19.10;71.20;;;;;;5064996;28;20040;-74
2021/06/19 08:40:14;;;;;;;0.10;0.10;;;19.20;71.20;;;;;;5059280;28;20036;-74
2021/06/19 08:42:40;;;;;;;0.17;0.10;;;19.20;71.10;;;;;;5059519;28;20029;-74
2021/06/19 08:45:06;;;;;;;0.28;0.20;;;19.40;70.80;;;;;;5067859;28;20142;-74
2021/06/19 08:47:36;;;;;;;0.20;0.20;;;19.40;70.60;;;;;;5075360;28;20031;-74
2021/06/19 08:50:14;;;;;;;0.13;0.13;;;19.60;70.40;;;;;;5073402;28;20032;-74
2021/06/19 08:52:41;;;;;;;0.10;0.10;;;20.00;68.80;;;;;;5070516;28;20493;-74
2021/06/19 08:55:10;;;;;;;0.10;0.10;;;20.40;68.10;;;;;;5056303;28;20506;-74
2021/06/19 08:57:36;;;;;;;0.10;0.10;;;20.40;68.60;;;;;;5054869;28;20792;-74
2021/06/19 09:00:04;;;;;;;0.10;0.10;;;20.30;68.40;;;;;;5080098;28;20032;-73
2021/06/19 09:02:30;;;;;;;0.10;0.10;;;20.30;67.80;;;;;;5056912;28;20093;-74
2021/06/19 09:05:00;;;;;;;0.10;0.10;;;20.00;68.50;;;;;;5055562;28;20486;-74
2021/06/19 09:07:46;;;;;;;0.10;0.10;;;19.90;69.40;;;;;;5073564;28;20036;-75
2021/06/19 09:10:33;;;;;;;0.10;0.10;;;20.10;69.20;;;;;;5076072;28;20028;-77
2021/06/19 09:13:00;;;;;;;0.30;0.20;;;20.00;68.60;;;;;;5074994;28;20119;-76
2021/06/19 09:15:27;;;;;;;0.10;0.10;;;19.90;70.10;;;;;;5066673;28;20025;-77
2021/06/19 09:18:13;;;;;;;0.10;0.10;;;20.00;69.10;;;;;;5071982;28;20391;-76
2021/06/19 09:20:59;;;;;;;0.28;0.20;;;20.20;68.50;;;;;;5056294;28;20075;-76
2021/06/19 09:23:38;;;;;;;0.10;0.10;;;20.50;69.10;;;;;;5056439;28;20048;-76
2021/06/19 09:26:16;;;;;;;0.17;0.10;;;20.60;68.10;;;;;;5054571;28;20378;-75
2021/06/19 09:29:09;;;;;;;0.10;0.10;;;20.80;68.30;;;;;;5063820;28;20123;-75
2021/06/19 09:31:53;;;;;;;0.20;0.10;;;20.30;68.00;;;;;;5066506;28;20499;-81
2021/06/19 09:34:28;;;;;;;0.20;0.20;;;20.00;68.60;;;;;;5066346;28;20110;-76
2021/06/19 09:37:05;;;;;;;0.10;0.10;;;20.10;69.80;;;;;;5065976;28;20051;-76
2021/06/19 09:39:34;;;;;;;0.20;0.10;;;20.30;69.60;;;;;;5067412;28;20152;-78
2021/06/19 09:42:03;;;;;;;0.20;0.10;;;20.30;68.00;;;;;;5065970;28;20084;-78
2021/06/19 09:44:38;;;;;;;0.20;0.20;;;20.00;69.20;;;;;;5070138;28;20369;-77
2021/06/19 09:47:05;;;;;;;0.20;0.20;;;20.30;69.60;;;;;;5066097;28;20021;-76
2021/06/19 09:49:33;;;;;;;0.10;0.10;;;20.50;69.00;;;;;;5068795;28;20111;-80
2021/06/19 09:51:58;;;;;;;0.10;0.10;;;20.70;68.40;;;;;;5055767;28;20037;-77
2021/06/19 09:54:24;;;;;;;0.15;0.10;;;20.80;67.20;;;;;;5066551;28;20391;-78
2021/06/19 09:56:55;;;;;;;0.20;0.10;;;20.60;68.10;;;;;;5074119;28;20025;-76
2021/06/19 09:59:33;;;;;;;0.10;0.10;;;20.80;68.10;;;;;;5078441;28;20941;-82
2021/06/19 10:02:02;;;;;;;0.10;0.10;;;21.00;67.50;;;;;;5064188;28;20051;-81
2021/06/19 10:04:29;;;;;;;0.10;0.10;;;20.80;67.00;;;;;;5055400;28;20036;-78
2021/06/19 10:06:56;;;;;;;0.20;0.10;;;20.80;67.20;;;;;;5055636;28;20150;-78
2021/06/19 10:09:22;;;;;;;0.10;0.10;;;20.80;68.10;;;;;;5054961;28;20033;-78
2021/06/19 10:11:54;;;;;;;0.30;0.10;;;20.80;67.60;;;;;;5055460;28;20025;-77
2021/06/19 10:14:23;;;;;;;0.10;0.10;;;20.80;68.60;;;;;;5069523;28;20051;-77
2021/06/19 10:16:53;;;;;;;0.10;0.10;;;20.80;68.60;;;;;;5070689;28;20760;-77
2021/06/19 10:19:22;;;;;;;0.20;0.10;;;20.60;68.60;;;;;;5060355;28;20043;-76
2021/06/19 10:21:50;;;;;;;0.15;0.10;;;20.50;69.30;;;;;;5069801;28;20020;-76
2021/06/19 10:24:17;;;;;;;0.30;0.10;;;20.50;68.70;;;;;;5064124;28;20706;-77
2021/06/19 10:26:43;;;;;;;0.13;0.10;;;20.40;68.80;;;;;;5059234;28;20137;-77
2021/06/19 10:29:11;;;;;;;0.10;0.10;;;20.60;68.60;;;;;;5068829;28;20052;-77
2021/06/19 10:31:39;;;;;;;0.10;0.10;;;20.80;68.40;;;;;;5063237;28;20085;-77
2021/06/19 10:34:19;;;;;;;0.10;0.10;;;20.80;69.40;;;;;;5058392;28;20488;-82
2021/06/19 10:36:44;;;;;;;0.10;0.10;;;21.00;68.90;;;;;;5060553;28;20025;-76
2021/06/19 10:39:11;;;;;;;0.10;0.10;;;21.10;67.80;;;;;;5066806;28;20044;-78
2021/06/19 10:41:48;;;;;;;0.20;0.20;;;21.10;67.70;;;;;;5066019;28;20017;-76
2021/06/19 10:44:14;;;;;;;0.10;0.10;;;21.20;67.50;;;;;;5063275;28;20024;-83
2021/06/19 10:46:41;;;;;;;0.15;0.10;;;21.20;67.30;;;;;;5065052;28;20028;-80
2021/06/19 10:49:18;;;;;;;0.10;0.10;;;21.10;67.90;;;;;;5066659;28;20020;-83
2021/06/19 10:51:44;;;;;;;0.10;0.10;;;21.10;67.70;;;;;;5069372;28;20463;-80
2021/06/19 10:54:15;;;;;;;0.20;0.10;;;21.10;67.80;;;;;;5060481;28;20063;-79
2021/06/19 10:56:57;;;;;;;0.10;0.10;;;21.10;67.90;;;;;;5052212;28;20722;-75
2021/06/19 10:59:30;;;;;;;0.10;0.10;;;21.10;67.80;;;;;;5063904;28;20040;-75
2021/06/19 11:02:00;;;;;;;0.10;0.10;;;21.20;67.90;;;;;;5060188;22;20048;-77
2021/06/19 11:04:41;;;;;;;0.10;0.10;;;21.20;68.00;;;;;;5050090;28;20030;-76
2021/06/19 11:07:19;;;;;;;0.10;0.10;;;21.20;68.00;;;;;;5047192;23;20527;-76
2021/06/19 11:09:50;;;;;;;0.10;0.10;;;21.00;68.60;;;;;;5030425;28;20041;-76
2021/06/19 11:12:18;;;;;;;0.20;0.17;;;21.00;68.90;;;;;;5038107;28;20088;-76
2021/06/19 11:14:51;;;;;;;0.10;0.10;;;21.00;68.80;;;;;;5036386;28;20067;-77
2021/06/19 11:17:17;;;;;;;0.15;0.10;;;21.00;68.80;;;;;;5025741;28;20030;-77
2021/06/19 11:19:48;;;;;;;0.10;0.10;;;21.00;69.20;;;;;;5022124;28;21017;-77
2021/06/19 11:22:54;;;;;;;0.10;0.10;;;21.00;69.40;;;;;;5028140;28;20025;-77
2021/06/19 11:25:29;;;;;;;0.20;0.10;;;20.90;69.80;;;;;;5027509;28;20048;-77
2021/06/19 11:28:05;;;;;;;0.10;0.10;;;20.90;70.10;;;;;;5026249;28;20014;-77
2021/06/19 11:30:34;;;;;;;0.20;0.10;;;20.80;70.50;;;;;;5034998;28;20108;-77
2021/06/19 11:33:26;;;;;;;0.38;0.20;;;20.80;71.10;;;;;;5032023;28;20098;-77
2021/06/19 11:36:12;;;;;;;0.52;0.30;;;20.90;70.80;;;;;;5027259;28;20530;-76
2021/06/19 11:38:56;;;;;;;0.25;0.20;;;21.00;70.70;;;;;;5024790;28;20064;-77
2021/06/19 11:41:34;;;;;;;0.10;0.10;;;21.00;71.50;;;;;;5032444;28;20035;-77
2021/06/19 11:44:01;;;;;;;0.20;0.10;;;21.00;71.10;;;;;;5033452;28;20025;-76
2021/06/19 11:46:27;;;;;;;0.10;0.10;;;21.00;71.10;;;;;;5035244;28;20014;-76
2021/06/19 11:49:08;;;;;;;0.08;0.08;;;20.90;71.80;;;;;;5033634;28;20923;-77
2021/06/19 11:51:35;;;;;;;0.40;0.10;;;20.80;72.80;;;;;;5059087;28;20018;-77
2021/06/19 11:54:01;;;;;;;0.50;0.10;;;20.80;73.00;;;;;;5029787;28;20476;-77
2021/06/19 11:56:30;;;;;;;0.25;0.20;;;20.80;73.70;;;;;;5026367;28;20083;-77
2021/06/19 11:59:04;;;;;;;0.10;0.10;;;20.80;73.50;;;;;;5028070;28;20077;-78
2021/06/19 12:01:39;;;;;;;0.10;0.10;;;20.80;73.90;;;;;;5034218;28;20025;-79
2021/06/19 12:04:06;;;;;;;0.10;0.10;;;20.80;73.10;;;;;;5030550;28;20369;-79
2021/06/19 12:06:43;;;;;;;0.30;0.15;;;20.80;73.80;;;;;;5028182;28;20041;-79
2021/06/19 12:09:25;;;;;;;0.20;0.17;;;20.80;73.90;;;;;;5032366;28;20086;-80
2021/06/19 12:11:55;;;;;;;0.17;0.13;;;21.00;73.80;;;;;;5026026;28;20407;-82
2021/06/19 12:14:25;;;;;;;0.17;0.10;;;20.90;74.20;;;;;;5031515;28;20017;-82
2021/06/19 12:17:01;;;;;;;0.15;0.10;;;20.90;74.40;;;;;;5030342;28;20045;-78
2021/06/19 12:19:30;;;;;;;0.13;0.10;;;20.80;74.90;;;;;;5028162;28;20025;-80
2021/06/19 12:22:01;;;;;;;0.20;0.10;;;20.80;74.40;;;;;;5031334;28;20152;-80
2021/06/19 12:24:30;;;;;;;0.10;0.10;;;20.80;74.70;;;;;;5028118;28;20140;-75
2021/06/19 12:27:11;;;;;;;0.20;0.20;;;20.70;75.70;;;;;;5021122;28;20038;-78
2021/06/19 12:29:53;;;;;;;0.10;0.10;;;20.50;76.10;;;;;;5033957;28;20037;-76
2021/06/19 12:32:30;;;;;;;0.10;0.10;;;20.60;75.60;;;;;;5044600;28;20463;-79
2021/06/19 12:35:03;;;;;;;0.10;0.10;;;20.50;75.50;;;;;;5034201;28;20030;-76
2021/06/19 12:37:34;;;;;;;0.20;0.20;;;20.50;74.90;;;;;;5017234;28;20092;-76
2021/06/19 12:40:02;;;;;;;0.20;0.20;;;20.40;76.10;;;;;;5019135;28;20021;-75
2021/06/19 12:42:48;;;;;;;0.10;0.10;;;20.30;76.80;;;;;;5016180;28;20076;-75
2021/06/19 12:45:19;;;;;;;0.20;0.10;;;20.30;77.30;;;;;;5015064;28;20052;-75
2021/06/19 12:47:47;;;;;;;0.20;0.20;;;20.30;77.40;;;;;;5014800;28;20366;-76
2021/06/19 12:50:33;;;;;;;0.28;0.20;;;20.20;77.60;;;;;;5014564;28;20041;-76
2021/06/19 12:53:05;;;;;;;0.10;0.10;;;20.00;77.70;;;;;;5032066;28;20476;-76
2021/06/19 12:55:36;;;;;;;0.20;0.13;;;19.80;78.40;;;;;;5035140;28;20025;-76
2021/06/19 12:58:03;;;;;;;0.17;0.17;;;19.70;78.70;;;;;;5016674;28;20508;-75